Time;durP1;ratioP1;P1;durP2;ratioP2;P2;SDS_P1;SDS_P2;PMS_P1;PMS_P2;Temp;Humidity;BMP_temperature;BMP_pressure;BME280_temperature;BME280_humidity;BME280_pressure;Samples;Min_cycle;Max_cycle;Signal;HPM_P1;HPM_P2
2023/06/27 00:02:06;;;;;;;2.47;1.20;;;20.20;47.90;;;;;;898423;155;27516;-74
2023/06/27 00:04:32;;;;;;;2.12;1.35;;;20.20;48.00;;;;;;899338;155;27495;-75
2023/06/27 00:06:59;;;;;;;1.25;1.15;;;20.20;48.00;;;;;;899837;155;27338;-75
2023/06/27 00:09:25;;;;;;;1.72;1.22;;;20.10;48.00;;;;;;898874;155;28895;-74
2023/06/27 00:11:52;;;;;;;1.55;1.45;;;20.10;48.10;;;;;;899643;155;27370;-75
2023/06/27 00:14:19;;;;;;;1.30;1.10;;;20.10;48.80;;;;;;899223;155;27493;-75
2023/06/27 00:16:46;;;;;;;1.32;1.10;;;20.10;48.30;;;;;;898320;155;27288;-75
2023/06/27 00:19:12;;;;;;;0.70;0.70;;;20.00;48.30;;;;;;899173;155;27529;-75
2023/06/27 00:21:38;;;;;;;1.30;1.20;;;20.00;48.40;;;;;;898271;155;27396;-75
2023/06/27 00:24:05;;;;;;;1.17;0.95;;;19.90;48.50;;;;;;899320;155;27406;-75
2023/06/27 00:26:32;;;;;;;1.50;1.40;;;19.90;48.60;;;;;;898551;155;27424;-75
2023/06/27 00:28:58;;;;;;;1.10;1.05;;;19.90;48.70;;;;;;900103;155;27465;-75
2023/06/27 00:31:25;;;;;;;3.22;1.40;;;19.90;48.80;;;;;;899887;155;27460;-75
2023/06/27 00:33:51;;;;;;;2.40;1.17;;;19.80;48.90;;;;;;899398;155;27799;-75
2023/06/27 00:36:18;;;;;;;6.50;1.30;;;19.80;49.00;;;;;;898977;155;27419;-75
2023/06/27 00:38:45;;;;;;;1.00;1.00;;;19.70;49.10;;;;;;898087;155;27400;-74
2023/06/27 00:41:11;;;;;;;1.40;1.30;;;19.70;49.20;;;;;;898944;155;27478;-74
2023/06/27 00:43:38;;;;;;;2.02;1.30;;;19.70;49.30;;;;;;899629;155;27463;-74
2023/06/27 00:46:04;;;;;;;1.82;1.40;;;19.70;49.40;;;;;;898731;155;27410;-74
2023/06/27 00:48:31;;;;;;;1.77;1.40;;;19.70;49.50;;;;;;898965;155;27386;-74
2023/06/27 00:50:58;;;;;;;1.65;1.25;;;19.60;49.60;;;;;;899846;155;27400;-74
2023/06/27 00:53:24;;;;;;;1.55;1.10;;;19.60;49.70;;;;;;898381;155;27370;-74
2023/06/27 00:55:51;;;;;;;1.17;1.07;;;19.60;49.70;;;;;;899172;155;27446;-74
2023/06/27 00:58:18;;;;;;;1.42;1.07;;;19.60;49.70;;;;;;898996;155;27426;-75
2023/06/27 01:00:44;;;;;;;0.95;0.90;;;19.60;49.80;;;;;;898613;155;27470;-74
2023/06/27 01:03:10;;;;;;;2.65;1.20;;;19.60;49.90;;;;;;897983;155;27370;-75
2023/06/27 01:05:37;;;;;;;2.50;1.15;;;19.60;49.90;;;;;;899570;155;27424;-75
2023/06/27 01:08:06;;;;;;;1.15;1.10;;;19.60;50.00;;;;;;898120;155;27401;-75
2023/06/27 01:10:42;;;;;;;1.55;1.10;;;19.50;50.00;;;;;;899927;155;27358;-74
2023/06/27 01:13:14;;;;;;;2.00;1.25;;;19.50;50.00;;;;;;899079;155;27425;-74
2023/06/27 01:15:41;;;;;;;1.40;1.30;;;19.50;50.20;;;;;;896465;155;27400;-74
2023/06/27 01:18:08;;;;;;;1.00;1.00;;;19.40;50.10;;;;;;898550;155;27477;-74
2023/06/27 01:20:34;;;;;;;1.72;1.00;;;19.40;50.20;;;;;;873364;161;27377;-74
2023/06/27 01:23:22;;;;;;;1.42;1.10;;;19.40;50.30;;;;;;880437;158;27506;-74
2023/06/27 01:25:52;;;;;;;1.05;0.95;;;19.30;50.40;;;;;;898584;155;27472;-74
2023/06/27 01:28:18;;;;;;;4.00;1.15;;;19.30;50.40;;;;;;898297;155;27483;-74
2023/06/27 01:30:45;;;;;;;2.00;1.10;;;19.30;50.50;;;;;;901554;155;27441;-74
2023/06/27 01:33:21;;;;;;;1.40;1.12;;;19.20;50.60;;;;;;898608;155;27388;-74
2023/06/27 01:35:53;;;;;;;2.15;1.30;;;19.20;50.70;;;;;;898758;155;27431;-74
2023/06/27 01:38:20;;;;;;;3.02;1.12;;;19.10;50.80;;;;;;898629;155;27321;-74
2023/06/27 01:40:46;;;;;;;0.82;0.82;;;19.10;50.90;;;;;;897990;155;27393;-74
2023/06/27 01:43:13;;;;;;;1.82;1.20;;;19.00;51.00;;;;;;898512;155;27391;-74
2023/06/27 01:45:40;;;;;;;1.10;0.90;;;19.00;51.20;;;;;;898930;155;27498;-74
2023/06/27 01:48:06;;;;;;;1.60;1.40;;;18.90;51.30;;;;;;900326;155;27554;-74
2023/06/27 01:50:33;;;;;;;2.55;1.22;;;18.90;51.40;;;;;;899564;155;27505;-74
2023/06/27 01:52:59;;;;;;;2.15;1.15;;;18.90;51.50;;;;;;897485;156;27423;-74
2023/06/27 01:55:26;;;;;;;2.05;1.30;;;18.80;51.60;;;;;;898991;155;27385;-74
2023/06/27 01:57:53;;;;;;;1.22;1.10;;;18.80;51.70;;;;;;897896;155;27712;-74
2023/06/27 02:00:19;;;;;;;1.65;1.22;;;18.70;51.80;;;;;;898545;155;27505;-74
2023/06/27 02:02:46;;;;;;;1.15;1.05;;;18.70;52.00;;;;;;900901;155;27418;-76
2023/06/27 02:05:12;;;;;;;1.45;1.12;;;18.60;52.00;;;;;;897477;155;27510;-76
2023/06/27 02:07:39;;;;;;;1.60;1.27;;;18.50;52.10;;;;;;899273;155;27736;-76
2023/06/27 02:10:06;;;;;;;1.80;1.20;;;18.50;52.30;;;;;;897355;155;27452;-76
2023/06/27 02:12:32;;;;;;;2.45;1.10;;;18.50;52.50;;;;;;898964;155;27479;-76
2023/06/27 02:14:59;;;;;;;2.30;1.25;;;18.40;52.60;;;;;;900143;155;27415;-76
2023/06/27 02:17:25;;;;;;;2.35;2.00;;;18.30;52.60;;;;;;899828;155;27872;-76
2023/06/27 02:19:52;;;;;;;3.25;1.40;;;18.30;52.70;;;;;;900502;155;27361;-76
2023/06/27 02:22:19;;;;;;;1.10;1.10;;;18.20;52.80;;;;;;898469;155;27374;-76
2023/06/27 02:24:45;;;;;;;1.87;1.20;;;18.20;52.90;;;;;;899185;155;27531;-76
2023/06/27 02:27:13;;;;;;;1.30;1.20;;;18.10;53.00;;;;;;898678;155;27396;-76
2023/06/27 02:29:38;;;;;;;1.60;1.50;;;18.00;53.20;;;;;;900829;155;27396;-76
2023/06/27 02:32:05;;;;;;;1.45;1.37;;;18.00;53.30;;;;;;895984;155;27453;-76
2023/06/27 02:34:32;;;;;;;1.67;1.20;;;17.90;53.40;;;;;;900203;155;27789;-76
2023/06/27 02:36:58;;;;;;;2.30;1.20;;;17.80;53.50;;;;;;898232;155;27494;-76
2023/06/27 02:39:25;;;;;;;2.12;1.12;;;17.70;53.60;;;;;;898661;155;27395;-76
2023/06/27 02:41:52;;;;;;;5.67;1.60;;;17.60;53.70;;;;;;897120;155;27473;-76
2023/06/27 02:44:18;;;;;;;1.98;1.20;;;17.60;53.80;;;;;;897671;155;27367;-76
2023/06/27 02:46:45;;;;;;;1.72;1.30;;;17.50;54.00;;;;;;898602;155;27432;-76
2023/06/27 02:49:11;;;;;;;5.15;2.40;;;17.50;54.10;;;;;;898717;155;27522;-76
2023/06/27 02:51:38;;;;;;;1.47;1.37;;;17.40;54.20;;;;;;899008;155;27490;-76
2023/06/27 02:54:05;;;;;;;1.97;1.60;;;17.40;54.40;;;;;;897824;155;27393;-76
2023/06/27 02:56:32;;;;;;;2.30;1.23;;;17.30;54.50;;;;;;897792;155;27397;-76
2023/06/27 02:58:58;;;;;;;1.75;1.25;;;17.30;54.70;;;;;;901429;155;27581;-76
2023/06/27 03:01:24;;;;;;;1.50;1.40;;;17.20;54.70;;;;;;898295;155;27508;-76
2023/06/27 03:03:51;;;;;;;1.50;1.20;;;17.20;54.90;;;;;;897849;155;27370;-76
2023/06/27 03:06:19;;;;;;;1.30;1.15;;;17.20;55.00;;;;;;898084;155;27376;-76
2023/06/27 03:08:44;;;;;;;1.40;1.30;;;17.10;55.00;;;;;;898376;155;27517;-76
2023/06/27 03:11:11;;;;;;;2.62;1.35;;;17.10;55.00;;;;;;898917;155;27403;-76
2023/06/27 03:13:37;;;;;;;3.12;1.40;;;17.00;55.10;;;;;;897039;155;27502;-76
2023/06/27 03:16:04;;;;;;;2.30;1.70;;;17.00;55.20;;;;;;898457;155;27455;-76
2023/06/27 03:18:30;;;;;;;2.33;1.30;;;17.00;55.40;;;;;;899381;155;27394;-76
2023/06/27 03:20:57;;;;;;;1.50;1.27;;;16.90;55.60;;;;;;897806;155;27474;-76
2023/06/27 03:23:24;;;;;;;1.40;1.30;;;16.90;55.90;;;;;;899459;155;27396;-76
2023/06/27 03:25:50;;;;;;;2.83;1.45;;;16.90;55.90;;;;;;898992;155;27366;-76
2023/06/27 03:28:17;;;;;;;3.17;1.35;;;16.90;56.00;;;;;;898910;155;27398;-76
2023/06/27 03:30:43;;;;;;;2.42;1.10;;;16.90;56.10;;;;;;898010;155;28307;-76
2023/06/27 03:33:10;;;;;;;1.57;1.47;;;16.90;56.30;;;;;;898280;155;27545;-76
2023/06/27 03:35:37;;;;;;;2.42;1.70;;;16.90;56.30;;;;;;898714;155;27397;-76
2023/06/27 03:38:03;;;;;;;1.57;1.40;;;16.90;56.30;;;;;;899069;155;27307;-76
2023/06/27 03:40:30;;;;;;;2.08;1.60;;;16.90;56.40;;;;;;900878;155;27529;-76
2023/06/27 03:42:57;;;;;;;1.90;1.50;;;16.90;56.50;;;;;;900238;155;27486;-76
2023/06/27 03:45:23;;;;;;;2.10;1.52;;;16.90;56.60;;;;;;898547;155;27360;-76
2023/06/27 03:47:50;;;;;;;2.77;1.80;;;16.90;56.70;;;;;;898644;155;27477;-76
2023/06/27 03:50:16;;;;;;;1.85;1.42;;;16.90;56.80;;;;;;898493;155;27787;-76
2023/06/27 03:52:43;;;;;;;3.47;1.57;;;16.90;56.80;;;;;;900411;155;27540;-76
2023/06/27 03:55:09;;;;;;;2.23;1.40;;;16.90;56.80;;;;;;899828;155;27780;-76
2023/06/27 03:57:36;;;;;;;1.42;1.32;;;16.90;57.00;;;;;;898340;155;27387;-76
2023/06/27 04:00:03;;;;;;;1.50;1.40;;;16.90;57.10;;;;;;898889;155;27548;-76
2023/06/27 04:02:29;;;;;;;1.47;1.37;;;17.00;57.20;;;;;;900995;155;27505;-76
2023/06/27 04:04:56;;;;;;;1.55;1.32;;;17.00;57.30;;;;;;899298;155;27307;-76
2023/06/27 04:07:22;;;;;;;1.70;1.60;;;17.00;57.30;;;;;;898234;155;27362;-76
2023/06/27 04:09:49;;;;;;;2.50;1.50;;;17.10;57.50;;;;;;900391;155;27358;-76
2023/06/27 04:12:15;;;;;;;1.65;1.55;;;17.10;57.60;;;;;;900050;155;27401;-76
2023/06/27 04:14:42;;;;;;;1.57;1.42;;;17.20;57.60;;;;;;897648;155;27372;-76
2023/06/27 04:17:09;;;;;;;2.58;1.42;;;17.30;57.70;;;;;;898962;155;27388;-76
2023/06/27 04:19:35;;;;;;;1.50;1.40;;;17.30;57.80;;;;;;896566;155;27426;-76
2023/06/27 04:22:02;;;;;;;1.72;1.62;;;17.40;57.90;;;;;;899494;155;27432;-76
2023/06/27 04:24:28;;;;;;;3.05;1.70;;;17.50;57.90;;;;;;899035;155;27428;-76
2023/06/27 04:26:55;;;;;;;2.17;1.50;;;17.60;58.00;;;;;;898133;155;27361;-76
2023/06/27 04:29:22;;;;;;;2.72;1.60;;;17.70;57.90;;;;;;899488;155;27383;-76
2023/06/27 04:31:48;;;;;;;1.75;1.50;;;17.80;57.90;;;;;;899357;155;27394;-76
2023/06/27 04:34:15;;;;;;;2.17;1.70;;;17.90;57.80;;;;;;897757;155;27463;-77
2023/06/27 04:36:41;;;;;;;2.27;1.75;;;18.00;57.80;;;;;;898460;155;27404;-76
2023/06/27 04:39:08;;;;;;;2.25;1.70;;;18.00;57.60;;;;;;900098;155;27435;-76
2023/06/27 04:41:34;;;;;;;3.60;1.70;;;18.10;57.60;;;;;;899225;155;27388;-76
2023/06/27 04:44:01;;;;;;;1.50;1.40;;;18.20;57.60;;;;;;898820;155;27463;-76
2023/06/27 04:46:28;;;;;;;3.20;1.60;;;18.20;57.50;;;;;;898163;155;27494;-76
2023/06/27 04:48:57;;;;;;;1.55;1.45;;;18.30;57.50;;;;;;900681;155;27398;-76
2023/06/27 04:51:24;;;;;;;1.98;1.75;;;18.30;57.50;;;;;;898134;155;27947;-76
2023/06/27 04:53:50;;;;;;;1.87;1.50;;;18.30;57.50;;;;;;898887;155;27914;-76
2023/06/27 04:56:16;;;;;;;1.67;1.50;;;18.40;57.60;;;;;;897506;155;27467;-76
2023/06/27 04:58:43;;;;;;;1.82;1.60;;;18.50;57.70;;;;;;901384;155;27366;-76
2023/06/27 05:01:10;;;;;;;1.98;1.30;;;18.50;57.70;;;;;;898763;155;27377;-76
2023/06/27 05:03:39;;;;;;;1.70;1.57;;;18.60;57.70;;;;;;899244;155;27406;-76
2023/06/27 05:06:06;;;;;;;2.22;1.57;;;18.70;57.70;;;;;;897931;155;27436;-76
2023/06/27 05:08:32;;;;;;;1.52;1.35;;;18.80;57.60;;;;;;899117;155;27411;-76
2023/06/27 05:10:59;;;;;;;3.77;1.87;;;18.90;57.60;;;;;;898512;155;27421;-76
2023/06/27 05:13:25;;;;;;;1.82;1.45;;;19.00;57.60;;;;;;899242;155;27392;-76
2023/06/27 05:15:52;;;;;;;1.57;1.47;;;19.10;57.40;;;;;;899605;157;27440;-76
2023/06/27 05:18:18;;;;;;;1.40;1.30;;;19.30;57.50;;;;;;899055;155;27319;-76
2023/06/27 05:20:45;;;;;;;1.90;1.45;;;19.40;57.50;;;;;;900116;157;27378;-76
2023/06/27 05:23:12;;;;;;;1.45;1.30;;;19.60;57.70;;;;;;898835;155;27482;-77
2023/06/27 05:25:38;;;;;;;1.55;1.45;;;19.80;57.60;;;;;;897487;155;28079;-77
2023/06/27 05:28:05;;;;;;;2.05;1.07;;;20.10;57.80;;;;;;900374;155;27456;-76
2023/06/27 05:30:32;;;;;;;1.20;1.10;;;20.40;57.90;;;;;;898576;155;27484;-76
2023/06/27 05:33:01;;;;;;;3.40;1.47;;;20.70;57.50;;;;;;897282;155;27468;-76
2023/06/27 05:35:25;;;;;;;1.60;1.50;;;21.00;57.00;;;;;;900324;155;27537;-76
2023/06/27 05:37:51;;;;;;;4.30;1.70;;;21.30;56.60;;;;;;898766;155;27415;-77
2023/06/27 05:40:18;;;;;;;1.75;1.25;;;21.60;56.60;;;;;;899363;155;27388;-76
2023/06/27 05:42:44;;;;;;;2.92;1.47;;;22.00;56.60;;;;;;899785;155;27344;-77
2023/06/27 05:45:11;;;;;;;1.67;1.52;;;22.40;56.80;;;;;;899083;155;27792;-77
2023/06/27 05:47:38;;;;;;;1.55;1.45;;;23.00;57.00;;;;;;899988;155;27387;-77
2023/06/27 05:50:04;;;;;;;2.42;1.32;;;23.60;56.50;;;;;;898731;155;27406;-77
2023/06/27 05:52:34;;;;;;;4.87;1.17;;;24.20;55.70;;;;;;896675;155;27342;-77
2023/06/27 05:54:57;;;;;;;2.12;1.52;;;24.80;54.70;;;;;;897938;155;27520;-77
2023/06/27 05:57:24;;;;;;;1.77;1.30;;;25.40;54.00;;;;;;898606;155;27395;-77
2023/06/27 05:59:51;;;;;;;2.65;1.30;;;25.90;53.30;;;;;;898720;155;27293;-77
2023/06/27 06:02:18;;;;;;;3.20;1.32;;;26.40;52.70;;;;;;898973;155;27770;-77
2023/06/27 06:04:44;;;;;;;1.98;1.15;;;26.80;51.80;;;;;;898196;155;27347;-77
2023/06/27 06:07:11;;;;;;;1.75;1.20;;;27.20;50.80;;;;;;896927;154;27401;-77
2023/06/27 06:09:37;;;;;;;1.15;1.02;;;27.50;49.80;;;;;;897386;155;27409;-77
2023/06/27 06:12:03;;;;;;;2.45;1.20;;;27.70;49.00;;;;;;899810;155;27373;-77
2023/06/27 06:14:30;;;;;;;1.37;1.15;;;27.80;48.30;;;;;;898422;155;27479;-77
2023/06/27 06:16:57;;;;;;;1.40;1.20;;;27.80;47.90;;;;;;899981;155;27407;-76
2023/06/27 06:19:23;;;;;;;2.20;1.10;;;27.80;47.90;;;;;;899785;155;27481;-77
2023/06/27 06:21:50;;;;;;;1.45;1.12;;;28.00;48.40;;;;;;898029;155;27489;-77
2023/06/27 06:24:16;;;;;;;2.05;1.10;;;28.30;48.70;;;;;;902945;154;27359;-78
2023/06/27 06:26:43;;;;;;;2.47;1.10;;;28.70;48.80;;;;;;900712;155;27491;-77
2023/06/27 06:29:13;;;;;;;1.45;1.27;;;29.30;48.60;;;;;;900518;155;27504;-77
2023/06/27 06:31:36;;;;;;;1.95;1.25;;;29.90;48.30;;;;;;899423;155;27390;-77
2023/06/27 06:34:03;;;;;;;1.62;0.93;;;30.50;47.80;;;;;;898943;155;27444;-78
2023/06/27 06:36:29;;;;;;;1.57;1.07;;;31.20;47.20;;;;;;900079;155;27460;-77
2023/06/27 06:38:58;;;;;;;1.25;1.00;;;31.80;46.60;;;;;;889901;155;27452;-77
2023/06/27 06:41:23;;;;;;;2.25;1.20;;;32.50;45.80;;;;;;889256;154;27502;-78
2023/06/27 06:43:49;;;;;;;1.47;1.15;;;33.20;45.10;;;;;;903763;154;26286;-78
2023/06/27 06:46:16;;;;;;;1.50;1.10;;;33.80;44.40;;;;;;903838;154;26292;-78
2023/06/27 06:48:42;;;;;;;2.42;1.40;;;34.50;43.90;;;;;;901823;155;26277;-78
2023/06/27 06:51:09;;;;;;;1.85;1.32;;;35.10;42.90;;;;;;898352;155;26406;-78
2023/06/27 06:53:35;;;;;;;1.10;1.00;;;35.60;41.60;;;;;;901159;155;27449;-78
2023/06/27 06:56:02;;;;;;;2.47;1.12;;;36.00;40.70;;;;;;899695;155;26301;-78
2023/06/27 06:58:29;;;;;;;1.67;1.40;;;36.40;40.30;;;;;;899438;155;26338;-78
2023/06/27 07:00:55;;;;;;;0.88;0.88;;;36.70;39.60;;;;;;899480;155;26382;-78
2023/06/27 07:03:22;;;;;;;1.57;1.40;;;37.00;39.40;;;;;;897035;155;27530;-78
2023/06/27 07:05:48;;;;;;;1.30;1.20;;;37.30;39.00;;;;;;898066;155;26288;-79
2023/06/27 07:08:15;;;;;;;1.00;0.93;;;37.70;38.70;;;;;;900219;155;26206;-78
2023/06/27 07:10:42;;;;;;;1.57;1.07;;;38.10;37.80;;;;;;898368;155;26320;-79
2023/06/27 07:13:08;;;;;;;1.25;1.15;;;38.50;37.20;;;;;;900041;155;26345;-79
2023/06/27 07:15:35;;;;;;;1.30;0.90;;;38.70;36.70;;;;;;899813;155;26289;-78
2023/06/27 07:18:01;;;;;;;1.17;1.00;;;39.00;36.20;;;;;;899713;155;26370;-78
2023/06/27 07:20:28;;;;;;;1.25;0.88;;;39.20;35.80;;;;;;897028;155;26296;-75
2023/06/27 07:22:55;;;;;;;1.37;1.05;;;39.30;35.20;;;;;;899455;155;26345;-76
2023/06/27 07:25:21;;;;;;;2.42;1.20;;;39.30;34.10;;;;;;898268;155;26304;-76
2023/06/27 07:27:48;;;;;;;1.65;1.12;;;39.30;33.90;;;;;;900849;157;26356;-76
2023/06/27 07:30:15;;;;;;;1.70;0.98;;;39.30;33.90;;;;;;899035;155;26334;-77
2023/06/27 07:32:41;;;;;;;1.50;1.00;;;39.40;34.00;;;;;;898004;155;26426;-76
2023/06/27 07:35:08;;;;;;;1.17;0.78;;;39.60;34.00;;;;;;897108;156;26357;-76
2023/06/27 07:37:34;;;;;;;1.95;1.05;;;39.90;33.70;;;;;;898297;156;26306;-76
2023/06/27 07:40:01;;;;;;;1.37;1.07;;;40.10;32.60;;;;;;901452;157;26285;-76
2023/06/27 07:42:27;;;;;;;2.20;0.85;;;40.30;32.80;;;;;;899584;155;26355;-77
2023/06/27 07:44:54;;;;;;;2.10;1.00;;;40.50;32.30;;;;;;898319;155;26304;-76
2023/06/27 07:47:20;;;;;;;4.67;1.20;;;40.60;32.20;;;;;;901024;157;26395;-76
2023/06/27 07:49:47;;;;;;;1.30;1.07;;;40.90;32.20;;;;;;899982;157;26325;-76
2023/06/27 07:52:14;;;;;;;4.17;1.17;;;41.10;31.90;;;;;;899865;155;26285;-76
2023/06/27 07:54:41;;;;;;;1.65;1.05;;;41.40;31.50;;;;;;898425;155;26324;-76
2023/06/27 07:57:07;;;;;;;1.75;1.02;;;41.80;31.10;;;;;;900502;155;26394;-75
2023/06/27 07:59:33;;;;;;;2.45;1.07;;;42.10;30.80;;;;;;898541;155;26351;-75
2023/06/27 08:02:00;;;;;;;1.05;0.95;;;42.40;30.60;;;;;;899904;155;26213;-74
2023/06/27 08:04:27;;;;;;;1.60;1.20;;;42.70;30.00;;;;;;898531;155;26427;-74
2023/06/27 08:06:53;;;;;;;1.27;1.00;;;43.00;29.80;;;;;;899315;155;26850;-74
2023/06/27 08:09:23;;;;;;;0.85;0.75;;;43.20;29.50;;;;;;898256;157;26392;-76
2023/06/27 08:11:50;;;;;;;0.93;0.85;;;43.50;29.30;;;;;;897088;155;26391;-76
2023/06/27 08:14:16;;;;;;;0.80;0.70;;;43.80;29.10;;;;;;896977;155;26234;-76
2023/06/27 08:16:43;;;;;;;1.47;1.02;;;44.10;28.70;;;;;;898762;155;26389;-76
2023/06/27 08:19:09;;;;;;;2.27;0.98;;;44.30;28.20;;;;;;897779;157;26413;-76
2023/06/27 08:21:36;;;;;;;1.20;1.10;;;44.60;28.10;;;;;;898883;155;26396;-76
2023/06/27 08:24:03;;;;;;;2.22;1.20;;;44.80;28.00;;;;;;898984;155;26297;-76
2023/06/27 08:26:29;;;;;;;1.45;0.82;;;45.10;27.70;;;;;;899059;157;26317;-76
2023/06/27 08:28:55;;;;;;;1.22;1.07;;;45.20;27.30;;;;;;898678;156;26387;-76
2023/06/27 08:31:22;;;;;;;3.40;1.20;;;45.20;26.80;;;;;;897803;156;26218;-76
2023/06/27 08:33:48;;;;;;;2.00;1.00;;;45.20;26.40;;;;;;897243;157;26309;-76
2023/06/27 08:36:15;;;;;;;2.20;0.90;;;44.90;26.00;;;;;;897687;157;26305;-76
2023/06/27 08:38:42;;;;;;;1.82;1.07;;;44.70;26.00;;;;;;897489;155;26318;-76
2023/06/27 08:41:08;;;;;;;1.57;1.02;;;44.40;26.00;;;;;;898488;155;26292;-76
2023/06/27 08:43:35;;;;;;;1.25;1.05;;;44.30;26.40;;;;;;898746;155;26269;-76
2023/06/27 08:46:01;;;;;;;0.93;0.80;;;44.40;26.70;;;;;;899095;155;26281;-76
2023/06/27 08:48:28;;;;;;;1.80;0.70;;;44.60;26.50;;;;;;899463;155;26469;-76
2023/06/27 08:50:55;;;;;;;2.98;1.30;;;45.00;26.50;;;;;;900029;155;26427;-76
2023/06/27 08:53:24;;;;;;;1.02;0.80;;;45.40;26.40;;;;;;900798;155;26323;-76
2023/06/27 08:56:00;;;;;;;1.70;0.60;;;45.80;26.10;;;;;;898374;155;26308;-76
2023/06/27 08:58:26;;;;;;;1.35;0.70;;;46.20;25.80;;;;;;898036;157;26402;-76
2023/06/27 09:00:53;;;;;;;1.77;0.93;;;46.50;25.40;;;;;;897959;155;26417;-76
2023/06/27 09:03:19;;;;;;;2.77;0.95;;;46.70;24.90;;;;;;898922;155;26278;-76
2023/06/27 09:05:49;;;;;;;1.22;0.93;;;46.80;24.60;;;;;;898870;155;26313;-76
2023/06/27 09:08:12;;;;;;;1.90;0.80;;;46.80;24.50;;;;;;897975;155;26371;-75
2023/06/27 09:10:39;;;;;;;1.60;1.00;;;46.80;24.10;;;;;;898360;157;26325;-75
2023/06/27 09:13:06;;;;;;;1.32;0.85;;;46.50;23.80;;;;;;900011;155;26309;-75
2023/06/27 09:15:32;;;;;;;1.57;0.93;;;46.00;23.50;;;;;;899986;155;27765;-76
2023/06/27 09:17:59;;;;;;;1.12;0.95;;;45.50;23.40;;;;;;900639;155;26210;-75
2023/06/27 09:20:25;;;;;;;2.65;1.10;;;44.70;23.60;;;;;;898324;155;26431;-75
2023/06/27 09:22:52;;;;;;;1.10;0.82;;;44.10;23.80;;;;;;900714;157;26292;-75
2023/06/27 09:25:21;;;;;;;1.75;1.00;;;43.60;24.10;;;;;;899483;154;26289;-76
2023/06/27 09:27:45;;;;;;;2.02;0.95;;;43.40;24.50;;;;;;899928;158;26290;-76
2023/06/27 09:30:12;;;;;;;1.22;0.95;;;43.30;24.60;;;;;;898349;155;26289;-76
2023/06/27 09:32:56;;;;;;;1.20;0.85;;;43.50;24.70;;;;;;899155;155;26321;-76
2023/06/27 09:35:23;;;;;;;1.20;0.85;;;43.80;24.80;;;;;;897884;154;26436;-75
2023/06/27 09:37:50;;;;;;;1.90;0.90;;;44.00;24.70;;;;;;899010;155;26399;-75
2023/06/27 09:40:19;;;;;;;1.87;0.90;;;44.10;24.10;;;;;;898625;155;26378;-75
2023/06/27 09:42:51;;;;;;;2.00;1.12;;;43.90;23.60;;;;;;898883;157;26313;-76
2023/06/27 09:45:18;;;;;;;1.80;1.05;;;43.50;23.50;;;;;;899745;155;26390;-76
2023/06/27 09:47:44;;;;;;;1.10;1.00;;;43.00;23.70;;;;;;899455;155;26348;-75
2023/06/27 09:50:11;;;;;;;2.27;1.07;;;42.50;24.00;;;;;;899316;155;26253;-75
2023/06/27 09:52:38;;;;;;;1.25;0.85;;;42.10;24.20;;;;;;898441;155;26300;-75
2023/06/27 09:55:04;;;;;;;1.70;0.90;;;41.70;24.30;;;;;;898197;157;26309;-75
2023/06/27 09:57:31;;;;;;;0.75;0.75;;;41.40;24.20;;;;;;897057;155;27505;-76
2023/06/27 09:59:58;;;;;;;1.30;0.98;;;41.00;24.20;;;;;;898363;155;26597;-76
2023/06/27 10:02:24;;;;;;;1.90;1.30;;;40.50;24.20;;;;;;899777;155;26296;-76
2023/06/27 10:04:51;;;;;;;2.60;1.45;;;39.90;24.50;;;;;;899801;155;26351;-76
2023/06/27 10:07:17;;;;;;;1.20;1.10;;;39.40;24.70;;;;;;903138;154;26296;-75
2023/06/27 10:09:44;;;;;;;2.40;1.17;;;38.80;24.90;;;;;;902493;154;26303;-75
2023/06/27 10:12:10;;;;;;;1.05;0.95;;;38.30;25.10;;;;;;903640;154;26423;-75
2023/06/27 10:14:37;;;;;;;2.12;1.20;;;37.90;25.40;;;;;;903485;154;27420;-75
2023/06/27 10:17:04;;;;;;;1.85;1.05;;;37.40;25.60;;;;;;904116;154;26281;-74
2023/06/27 10:19:31;;;;;;;1.60;1.10;;;37.10;25.80;;;;;;903120;154;27530;-75
2023/06/27 10:21:57;;;;;;;0.90;0.90;;;36.90;26.00;;;;;;902267;154;27368;-75
2023/06/27 10:24:23;;;;;;;1.07;1.00;;;36.50;26.00;;;;;;901714;157;27520;-74
2023/06/27 10:26:52;;;;;;;1.52;0.88;;;36.30;26.00;;;;;;902303;154;27407;-75
2023/06/27 10:29:19;;;;;;;1.05;1.05;;;35.90;26.00;;;;;;903778;154;27420;-74
2023/06/27 10:31:45;;;;;;;1.32;1.15;;;35.60;26.10;;;;;;902950;154;27395;-74
2023/06/27 10:34:20;;;;;;;1.42;1.20;;;35.30;26.60;;;;;;902178;154;27451;-74
2023/06/27 10:36:59;;;;;;;1.30;1.05;;;35.00;26.60;;;;;;902573;154;27577;-74
2023/06/27 10:39:28;;;;;;;1.40;1.30;;;34.80;27.00;;;;;;902298;154;27295;-75
2023/06/27 10:41:55;;;;;;;2.75;1.25;;;34.60;27.00;;;;;;903512;154;27394;-74
2023/06/27 10:44:22;;;;;;;1.35;1.15;;;34.50;27.20;;;;;;902550;154;27473;-74
2023/06/27 10:46:48;;;;;;;1.75;1.27;;;34.30;27.40;;;;;;900608;154;27385;-74
2023/06/27 10:49:15;;;;;;;1.32;1.10;;;34.20;27.30;;;;;;902392;154;27437;-75
2023/06/27 10:51:41;;;;;;;1.82;1.07;;;34.20;27.50;;;;;;901278;154;27390;-74
2023/06/27 10:54:08;;;;;;;1.85;1.32;;;34.20;27.70;;;;;;903028;154;27491;-74
2023/06/27 10:56:38;;;;;;;1.65;1.20;;;34.10;27.70;;;;;;900711;154;27416;-74
2023/06/27 10:59:04;;;;;;;1.40;1.30;;;34.10;27.80;;;;;;899835;154;27482;-74
2023/06/27 11:01:31;;;;;;;1.35;1.05;;;34.10;27.70;;;;;;901939;154;27373;-74
2023/06/27 11:03:57;;;;;;;1.40;1.30;;;34.10;27.70;;;;;;903364;154;27461;-75
2023/06/27 11:06:42;;;;;;;1.25;1.15;;;34.00;27.70;;;;;;897898;154;27537;-74
2023/06/27 11:09:15;;;;;;;2.37;1.12;;;34.00;27.90;;;;;;900927;155;27873;-74
2023/06/27 11:11:41;;;;;;;1.30;1.20;;;34.00;28.20;;;;;;898216;155;27292;-74
2023/06/27 11:14:08;;;;;;;2.10;1.50;;;34.00;28.10;;;;;;898727;155;27383;-74
2023/06/27 11:16:34;;;;;;;3.22;1.25;;;34.00;28.20;;;;;;899533;155;27512;-74
2023/06/27 11:19:01;;;;;;;1.77;1.22;;;33.90;28.10;;;;;;898342;155;27455;-74
2023/06/27 11:21:27;;;;;;;0.95;0.88;;;33.90;28.30;;;;;;901463;155;27366;-75
2023/06/27 11:23:59;;;;;;;1.10;1.10;;;33.80;28.10;;;;;;898979;155;27355;-74
2023/06/27 11:26:26;;;;;;;1.47;1.17;;;33.70;28.20;;;;;;899491;155;27381;-74
2023/06/27 11:28:53;;;;;;;2.30;1.50;;;33.60;28.40;;;;;;900234;155;27363;-74
2023/06/27 11:31:19;;;;;;;2.17;1.32;;;33.60;28.50;;;;;;898497;155;27403;-74
2023/06/27 11:33:46;;;;;;;1.30;1.20;;;33.50;28.50;;;;;;900330;155;27410;-74
2023/06/27 11:36:12;;;;;;;1.20;1.10;;;33.40;28.50;;;;;;899992;157;27382;-74
2023/06/27 11:38:39;;;;;;;1.70;1.15;;;33.40;28.40;;;;;;900094;155;27363;-74
2023/06/27 11:41:06;;;;;;;2.00;1.20;;;33.30;28.40;;;;;;897817;155;27509;-75
2023/06/27 11:43:32;;;;;;;1.47;1.37;;;33.20;28.50;;;;;;899158;155;27758;-74
2023/06/27 11:46:00;;;;;;;1.12;1.07;;;33.20;28.60;;;;;;899816;155;27400;-75
2023/06/27 11:48:25;;;;;;;1.87;1.20;;;33.20;28.60;;;;;;898590;155;27377;-74
2023/06/27 11:51:05;;;;;;;1.80;1.27;;;33.10;28.50;;;;;;899966;155;27426;-74
2023/06/27 11:53:31;;;;;;;1.62;1.15;;;33.00;28.50;;;;;;898415;155;27389;-74
2023/06/27 11:55:57;;;;;;;2.17;1.32;;;33.00;28.70;;;;;;899750;155;27383;-74
2023/06/27 11:58:30;;;;;;;1.35;1.10;;;32.80;28.50;;;;;;898901;155;27551;-74
2023/06/27 12:00:56;;;;;;;1.57;0.93;;;32.80;28.70;;;;;;898811;155;27413;-74
2023/06/27 12:03:26;;;;;;;1.52;1.15;;;32.70;28.90;;;;;;898960;155;27424;-74
2023/06/27 12:05:52;;;;;;;2.52;1.27;;;32.70;29.00;;;;;;900029;155;27436;-74
2023/06/27 12:08:23;;;;;;;1.32;1.20;;;32.60;28.90;;;;;;899130;155;27391;-74
2023/06/27 12:10:56;;;;;;;1.30;1.20;;;32.50;28.90;;;;;;899227;155;27450;-74
2023/06/27 12:13:18;;;;;;;1.72;1.30;;;32.40;29.00;;;;;;899344;155;27338;-74
2023/06/27 12:15:45;;;;;;;1.65;1.10;;;32.40;29.00;;;;;;899200;155;27827;-74
2023/06/27 12:18:11;;;;;;;1.27;1.12;;;32.30;29.10;;;;;;899446;155;27385;-74
2023/06/27 12:20:41;;;;;;;1.67;1.20;;;32.30;29.20;;;;;;898311;155;27440;-74
2023/06/27 12:23:07;;;;;;;1.20;1.10;;;32.20;29.20;;;;;;898533;155;27552;-75
2023/06/27 12:25:34;;;;;;;2.10;1.15;;;32.20;29.10;;;;;;899309;155;27387;-74
2023/06/27 12:28:00;;;;;;;1.10;1.07;;;32.20;29.10;;;;;;898020;155;27379;-75
2023/06/27 12:30:27;;;;;;;1.90;0.93;;;32.20;29.00;;;;;;898927;155;27382;-74
2023/06/27 12:32:54;;;;;;;1.00;0.95;;;32.30;29.10;;;;;;900916;155;27392;-75
2023/06/27 12:35:20;;;;;;;1.75;1.22;;;32.40;29.20;;;;;;898419;155;27525;-74
2023/06/27 12:37:47;;;;;;;4.37;1.37;;;32.40;29.00;;;;;;898057;155;27348;-75
2023/06/27 12:40:15;;;;;;;1.22;1.10;;;32.40;29.10;;;;;;891393;155;27417;-80
2023/06/27 12:42:40;;;;;;;1.50;1.00;;;32.50;28.90;;;;;;899577;155;26309;-74
2023/06/27 12:45:07;;;;;;;1.17;1.10;;;32.50;29.20;;;;;;898698;155;27481;-75
2023/06/27 12:47:33;;;;;;;1.20;1.05;;;32.50;28.80;;;;;;898508;155;27361;-74